createdAt,value
2019-03-11T00:01:05.522Z,90.90
2019-03-11T00:03:50.727Z,90.70
2019-03-11T00:06:35.920Z,90.40
2019-03-11T00:09:20.890Z,90.40
2019-03-11T00:12:06.031Z,90.60
2019-03-11T00:14:51.282Z,90.30
2019-03-11T00:17:36.455Z,90.20
2019-03-11T00:20:21.704Z,90.10
2019-03-11T00:23:07.046Z,90.00
2019-03-11T00:25:52.429Z,90.00
2019-03-11T00:28:37.559Z,90.00
2019-03-11T00:31:22.360Z,90.00
2019-03-11T00:34:07.590Z,89.70
2019-03-11T00:36:53.269Z,89.90
2019-03-11T00:39:38.509Z,89.50
2019-03-11T00:42:24.210Z,89.70
2019-03-11T00:45:12.561Z,89.60
2019-03-11T00:48:01.886Z,89.70
2019-03-11T00:50:46.158Z,89.90
2019-03-11T00:53:32.484Z,89.60
2019-03-11T00:56:18.162Z,89.50
2019-03-11T00:59:04.635Z,89.40
2019-03-11T01:01:49.788Z,89.70
2019-03-11T01:04:35.010Z,90.00
2019-03-11T01:07:21.885Z,90.10
2019-03-11T01:10:28.673Z,90.40
2019-03-11T01:13:13.878Z,90.30
2019-03-11T01:15:59.297Z,90.10
2019-03-11T01:18:44.225Z,90.10
2019-03-11T01:21:29.334Z,90.00
2019-03-11T01:24:14.231Z,90.20
2019-03-11T01:26:59.036Z,90.10
2019-03-11T01:29:44.000Z,90.20
2019-03-11T01:32:29.056Z,90.30
2019-03-11T01:35:14.215Z,90.20
2019-03-11T01:38:01.515Z,90.30
2019-03-11T01:40:46.203Z,90.40
2019-03-11T01:43:31.538Z,90.50
2019-03-11T01:46:16.942Z,90.50
2019-03-11T01:49:02.112Z,90.50
2019-03-11T01:51:47.328Z,90.40
2019-03-11T01:54:32.434Z,90.40
2019-03-11T01:57:17.491Z,90.50
2019-03-11T02:00:05.694Z,90.50
2019-03-11T02:02:50.540Z,90.30
2019-03-11T02:05:35.942Z,90.20
2019-03-11T02:08:22.845Z,90.20
2019-03-11T02:11:08.059Z,90.10
2019-03-11T02:13:53.157Z,90.10
2019-03-11T02:16:38.514Z,90.00
2019-03-11T02:19:23.773Z,90.00
2019-03-11T02:22:09.052Z,89.70
2019-03-11T02:24:54.611Z,89.70
2019-03-11T02:27:40.702Z,89.60
2019-03-11T02:30:25.987Z,90.00
2019-03-11T02:33:11.272Z,90.00
2019-03-11T02:35:56.593Z,90.20
2019-03-11T02:38:41.723Z,90.30
2019-03-11T02:41:27.222Z,90.30
2019-03-11T02:44:13.913Z,90.30
2019-03-11T02:46:59.144Z,90.30
2019-03-11T02:49:44.298Z,90.30
2019-03-11T02:52:28.993Z,90.30
2019-03-11T02:55:14.321Z,90.20
2019-03-11T02:57:59.956Z,90.00
2019-03-11T03:00:44.936Z,89.30
2019-03-11T03:03:40.579Z,89.00
2019-03-11T03:06:25.788Z,88.20
2019-03-11T03:09:13.756Z,88.00
2019-03-11T03:11:58.987Z,88.30
2019-03-11T03:14:44.506Z,88.00
2019-03-11T03:17:30.916Z,87.80
2019-03-11T03:20:16.233Z,87.40
2019-03-11T03:23:02.327Z,87.10
2019-03-11T03:25:48.116Z,86.10
2019-03-11T03:28:33.510Z,86.00
2019-03-11T03:31:18.645Z,85.70
2019-03-11T03:34:04.330Z,85.50
2019-03-11T03:36:49.181Z,85.30
2019-03-11T03:39:34.538Z,85.40
2019-03-11T03:42:19.852Z,85.10
2019-03-11T03:45:32.529Z,85.20
2019-03-11T03:48:17.475Z,85.10
2019-03-11T03:51:02.463Z,85.30
2019-03-11T03:53:47.901Z,85.40
2019-03-11T03:56:33.036Z,86.00
2019-03-11T03:59:18.724Z,86.50
2019-03-11T04:02:03.572Z,85.70
2019-03-11T04:04:49.261Z,85.40
2019-03-11T04:07:34.511Z,84.80
2019-03-11T04:10:20.584Z,84.50
2019-03-11T04:13:05.826Z,84.30
2019-03-11T04:15:50.980Z,84.10
2019-03-11T04:18:49.980Z,83.00
2019-03-11T04:21:35.261Z,83.00
2019-03-11T04:24:20.708Z,82.40
2019-03-11T04:27:08.648Z,82.00
2019-03-11T04:29:53.441Z,82.00
2019-03-11T04:32:38.714Z,82.30
2019-03-11T04:35:24.013Z,82.50
2019-03-11T04:38:09.362Z,82.00
2019-03-11T04:40:56.050Z,82.00
2019-03-11T04:43:41.157Z,82.20
2019-03-11T04:46:27.513Z,82.40
2019-03-11T04:49:13.668Z,82.40
2019-03-11T04:51:58.849Z,82.60
2019-03-11T04:54:44.085Z,82.80
2019-03-11T04:57:33.579Z,83.20
2019-03-11T05:00:20.906Z,83.10
2019-03-11T05:03:06.176Z,83.60
2019-03-11T05:05:51.101Z,83.80
2019-03-11T05:08:36.326Z,84.40
2019-03-11T05:11:21.435Z,84.40
2019-03-11T05:14:07.390Z,84.50
2019-03-11T05:16:53.030Z,84.80
2019-03-11T05:19:37.878Z,85.10
2019-03-11T05:22:23.292Z,85.10
2019-03-11T05:25:10.282Z,85.50
2019-03-11T05:27:55.405Z,84.90
2019-03-11T05:30:40.834Z,84.70
2019-03-11T05:33:26.014Z,84.50
2019-03-11T05:36:11.013Z,84.50
2019-03-11T05:38:56.035Z,84.60
2019-03-11T05:41:42.211Z,84.30
2019-03-11T05:44:27.524Z,84.30
2019-03-11T05:47:12.654Z,84.40
2019-03-11T05:49:57.803Z,84.60
2019-03-11T05:52:42.839Z,84.90
2019-03-11T05:56:45.172Z,84.70
2019-03-11T05:59:30.612Z,85.00
2019-03-11T06:02:15.745Z,85.00
2019-03-11T06:05:01.500Z,84.90
2019-03-11T06:07:46.726Z,84.90
2019-03-11T06:10:31.848Z,84.70
2019-03-11T06:13:17.310Z,84.80
2019-03-11T06:16:02.250Z,85.00
2019-03-11T06:18:49.494Z,84.90
2019-03-11T06:21:38.675Z,85.00
2019-03-11T06:24:23.619Z,85.20
2019-03-11T06:27:08.633Z,84.90
2019-03-11T06:29:53.896Z,84.90
2019-03-11T06:32:39.049Z,84.30
2019-03-11T06:35:25.269Z,84.00
2019-03-11T06:38:10.297Z,83.80
2019-03-11T06:40:55.696Z,83.20
2019-03-11T06:43:41.057Z,82.80
2019-03-11T06:46:27.015Z,83.30
2019-03-11T06:49:11.810Z,83.20
2019-03-11T06:51:56.992Z,83.10
2019-03-11T06:54:42.042Z,83.30
2019-03-11T06:57:27.778Z,83.80
2019-03-11T07:00:38.990Z,84.20
2019-03-11T07:03:24.900Z,84.70
2019-03-11T07:06:11.280Z,84.90
2019-03-11T07:08:56.310Z,85.10
2019-03-11T07:11:41.737Z,84.90
2019-03-11T07:14:26.797Z,85.10
2019-03-11T07:17:12.141Z,84.60
2019-03-11T07:19:57.376Z,84.90
2019-03-11T07:22:42.773Z,84.80
2019-03-11T07:25:27.925Z,83.90
2019-03-11T07:28:13.177Z,83.50
2019-03-11T07:31:00.274Z,83.50
2019-03-11T07:33:46.712Z,81.80
2019-03-11T07:36:31.919Z,81.80
2019-03-11T07:39:17.160Z,80.50
2019-03-11T07:42:02.997Z,79.70
2019-03-11T07:44:48.427Z,77.20
2019-03-11T07:47:33.663Z,76.40
2019-03-11T07:50:19.332Z,74.90
2019-03-11T07:53:04.714Z,75.90
2019-03-11T07:55:49.661Z,76.60
2019-03-11T07:58:35.118Z,76.60
2019-03-11T08:01:20.246Z,76.70
2019-03-11T08:04:05.187Z,75.50
2019-03-11T08:06:50.092Z,75.60
2019-03-11T08:09:38.247Z,75.40
2019-03-11T08:12:21.961Z,76.00
2019-03-11T08:15:15.740Z,74.30
2019-03-11T08:18:01.321Z,74.10
2019-03-11T08:20:46.411Z,72.90
2019-03-11T08:23:31.377Z,74.90
2019-03-11T08:26:16.531Z,74.30
2019-03-11T08:29:01.313Z,73.50
2019-03-11T08:31:46.654Z,73.50
2019-03-11T08:34:31.866Z,71.80
2019-03-11T08:37:17.223Z,73.40
2019-03-11T08:40:05.822Z,72.70
2019-03-11T08:42:50.772Z,73.00
2019-03-11T08:45:36.311Z,71.80
2019-03-11T08:48:21.393Z,70.80
2019-03-11T08:51:26.156Z,70.20
2019-03-11T08:54:11.634Z,68.90
2019-03-11T08:56:56.446Z,68.40
2019-03-11T08:59:42.764Z,68.20
2019-03-11T09:02:29.429Z,67.90
2019-03-11T09:05:16.429Z,66.40
2019-03-11T09:08:01.874Z,67.30
2019-03-11T09:10:46.755Z,66.80
2019-03-11T09:13:31.883Z,64.70
2019-03-11T09:16:17.025Z,62.30
2019-03-11T09:19:02.315Z,63.20
2019-03-11T09:21:47.563Z,64.70
2019-03-11T09:24:33.626Z,65.20
2019-03-11T09:27:18.994Z,63.50
2019-03-11T09:30:07.596Z,61.40
2019-03-11T09:32:52.835Z,60.40
2019-03-11T09:35:38.320Z,60.60
2019-03-11T09:38:23.495Z,59.80
2019-03-11T09:41:08.670Z,59.00
2019-03-11T09:43:53.808Z,58.30
2019-03-11T09:46:39.006Z,58.90
2019-03-11T09:49:25.080Z,59.70
2019-03-11T09:52:10.329Z,59.60
2019-03-11T09:54:55.788Z,59.40
2019-03-11T09:57:40.827Z,59.60
2019-03-11T10:00:26.975Z,61.10
2019-03-11T10:03:32.072Z,61.00
2019-03-11T10:06:17.221Z,61.20
2019-03-11T10:09:04.409Z,59.60
2019-03-11T10:11:49.579Z,58.70
2019-03-11T10:14:34.719Z,57.10
2019-03-11T10:17:21.611Z,56.50
2019-03-11T10:20:10.131Z,55.80
2019-03-11T10:22:55.189Z,52.40
2019-03-11T10:25:40.152Z,53.10
2019-03-11T10:28:25.354Z,53.50
2019-03-11T10:31:12.413Z,52.20
2019-03-11T10:33:58.746Z,53.40
2019-03-11T10:36:43.951Z,52.50
2019-03-11T10:39:29.477Z,52.10
2019-03-11T10:42:14.977Z,52.30
2019-03-11T10:44:59.790Z,51.80
2019-03-11T10:47:45.114Z,51.20
2019-03-11T10:50:30.076Z,50.60
2019-03-11T10:53:15.147Z,49.40
2019-03-11T10:56:00.142Z,48.60
2019-03-11T10:59:04.772Z,47.70
2019-03-11T11:01:52.544Z,48.60
2019-03-11T11:04:37.994Z,47.70
2019-03-11T11:07:22.910Z,49.30
2019-03-11T11:10:14.208Z,51.30
2019-03-11T11:12:59.341Z,51.80
2019-03-11T11:15:44.343Z,53.30
2019-03-11T11:18:29.725Z,52.80
2019-03-11T11:21:15.247Z,52.80
2019-03-11T11:24:01.483Z,52.60
2019-03-11T11:26:47.070Z,52.60
2019-03-11T11:29:32.046Z,51.60
2019-03-11T11:32:17.404Z,53.50
2019-03-11T11:35:04.288Z,54.80
2019-03-11T11:37:49.603Z,55.70
2019-03-11T11:40:34.617Z,56.20
2019-03-11T11:43:19.883Z,58.10
2019-03-11T11:46:05.082Z,58.30
2019-03-11T11:48:50.331Z,58.60
2019-03-11T11:51:35.309Z,58.60
2019-03-11T11:54:20.544Z,58.70
2019-03-11T11:57:06.786Z,59.50
2019-03-11T11:59:54.268Z,60.00
2019-03-11T12:02:38.877Z,60.80
2019-03-11T12:05:24.014Z,61.90
2019-03-11T12:08:09.260Z,61.30
2019-03-11T12:10:54.318Z,61.90
2019-03-11T12:13:39.570Z,63.00
2019-03-11T12:16:24.730Z,63.30
2019-03-11T12:19:09.592Z,62.10
2019-03-11T12:21:54.756Z,62.30
2019-03-11T12:24:40.164Z,62.80
2019-03-11T12:27:25.239Z,62.30
2019-03-11T12:30:17.246Z,62.50
2019-03-11T12:33:02.896Z,61.00
2019-03-11T12:35:48.885Z,62.20
2019-03-11T12:38:35.136Z,62.20
2019-03-11T12:41:21.427Z,62.60
2019-03-11T12:44:07.088Z,64.00
2019-03-11T12:46:52.295Z,64.00
2019-03-11T12:49:37.507Z,64.80
2019-03-11T12:52:23.465Z,66.10
2019-03-11T12:55:08.791Z,67.70
2019-03-11T12:57:53.843Z,67.90
2019-03-11T13:00:38.551Z,68.00
2019-03-11T13:03:23.795Z,67.80
2019-03-11T13:06:09.064Z,67.50
2019-03-11T13:08:54.818Z,67.80
2019-03-11T13:11:42.013Z,68.10
2019-03-11T13:14:27.158Z,68.30
2019-03-11T13:17:12.752Z,68.70
2019-03-11T13:19:57.889Z,67.10
2019-03-11T13:22:45.201Z,68.20
2019-03-11T13:25:30.411Z,68.50
2019-03-11T13:28:15.447Z,68.70
2019-03-11T13:31:00.629Z,69.30
2019-03-11T13:33:45.824Z,70.00
2019-03-11T13:36:31.359Z,69.80
2019-03-11T13:39:16.395Z,69.40
2019-03-11T13:42:01.845Z,69.70
2019-03-11T13:44:47.398Z,68.70
2019-03-11T13:47:32.920Z,69.30
2019-03-11T13:50:18.231Z,69.60
2019-03-11T13:53:03.732Z,70.00
2019-03-11T13:55:49.164Z,70.30
2019-03-11T13:58:34.989Z,70.90
2019-03-11T14:01:21.355Z,70.90
2019-03-11T14:04:07.237Z,69.80
2019-03-11T14:06:52.772Z,69.60
2019-03-11T14:09:38.083Z,67.70
2019-03-11T14:12:24.108Z,67.00
2019-03-11T14:15:12.960Z,67.50
2019-03-11T14:17:58.107Z,67.30
2019-03-11T14:20:43.424Z,67.30
2019-03-11T14:23:28.335Z,67.60
2019-03-11T14:26:13.537Z,67.20
2019-03-11T14:28:58.680Z,67.70
2019-03-11T14:31:44.044Z,67.70
2019-03-11T14:34:29.186Z,67.70
2019-03-11T14:37:14.603Z,68.30
2019-03-11T14:40:00.170Z,68.50
2019-03-11T14:42:46.170Z,68.50
2019-03-11T14:45:31.574Z,68.80
2019-03-11T14:48:18.371Z,69.00
2019-03-11T14:51:03.693Z,70.00
2019-03-11T14:53:48.977Z,70.70
2019-03-11T14:56:34.338Z,70.90
2019-03-11T14:59:19.629Z,71.20
2019-03-11T15:02:05.227Z,71.30
2019-03-11T15:04:51.311Z,71.80
2019-03-11T15:07:37.198Z,72.30
2019-03-11T15:10:22.369Z,71.70
2019-03-11T15:13:07.551Z,70.40
2019-03-11T15:15:53.252Z,70.10
2019-03-11T15:18:38.625Z,70.50
2019-03-11T15:21:23.945Z,70.50
2019-03-11T15:24:09.208Z,70.60
2019-03-11T15:26:55.591Z,70.50
2019-03-11T15:29:40.320Z,70.80
2019-03-11T15:32:26.123Z,70.80
2019-03-11T15:35:11.083Z,70.60
2019-03-11T15:37:56.434Z,71.00
2019-03-11T15:40:42.700Z,71.00
2019-03-11T15:43:27.758Z,71.50
2019-03-11T15:46:13.427Z,71.80
2019-03-11T15:48:58.276Z,72.10
2019-03-11T15:51:43.596Z,72.40
2019-03-11T15:54:29.523Z,72.60
2019-03-11T15:57:15.030Z,73.00
2019-03-11T16:00:00.352Z,74.00
2019-03-11T16:02:45.883Z,74.50
2019-03-11T16:05:31.471Z,74.90
2019-03-11T16:08:20.456Z,75.20
2019-03-11T16:11:07.490Z,75.70
2019-03-11T16:13:52.331Z,75.60
2019-03-11T16:16:37.559Z,75.90
2019-03-11T16:19:22.858Z,76.30
2019-03-11T16:22:08.007Z,75.90
2019-03-11T16:24:53.192Z,74.90
2019-03-11T16:27:38.486Z,74.30
2019-03-11T16:30:24.722Z,74.90
2019-03-11T16:33:12.113Z,76.30
2019-03-11T16:35:57.610Z,76.80
2019-03-11T16:38:42.598Z,77.40
2019-03-11T16:41:28.046Z,77.80
2019-03-11T16:44:13.734Z,78.00
2019-03-11T16:46:59.106Z,78.10
2019-03-11T16:49:45.270Z,78.20
2019-03-11T16:52:31.468Z,78.40
2019-03-11T16:55:21.281Z,78.60
2019-03-11T16:58:06.542Z,78.90
2019-03-11T17:00:53.563Z,79.00
2019-03-11T17:03:38.849Z,79.00
2019-03-11T17:06:24.051Z,79.20
2019-03-11T17:09:10.403Z,79.40
2019-03-11T17:11:55.868Z,79.50
2019-03-11T17:14:41.007Z,79.60
2019-03-11T17:17:26.125Z,79.80
2019-03-11T17:20:18.569Z,79.90
2019-03-11T17:23:03.844Z,80.20
2019-03-11T17:25:50.562Z,80.40
2019-03-11T17:28:35.726Z,80.60
2019-03-11T17:31:21.236Z,80.90
2019-03-11T17:34:06.315Z,81.00
2019-03-11T17:36:52.678Z,81.20
2019-03-11T17:39:37.749Z,81.30
2019-03-11T17:42:23.252Z,81.40
2019-03-11T17:45:11.109Z,81.70
2019-03-11T17:47:55.990Z,81.80
2019-03-11T17:50:42.660Z,81.90
2019-03-11T17:53:28.969Z,82.20
2019-03-11T17:56:14.272Z,82.70
2019-03-11T17:58:59.780Z,83.30
2019-03-11T18:01:46.209Z,83.60
2019-03-11T18:04:31.546Z,84.00
2019-03-11T18:07:17.964Z,84.50
2019-03-11T18:10:05.298Z,84.80
2019-03-11T18:12:50.504Z,85.30
2019-03-11T18:15:36.004Z,85.70
2019-03-11T18:18:20.971Z,85.90
2019-03-11T18:21:07.498Z,86.20
2019-03-11T18:23:52.438Z,86.30
2019-03-11T18:26:38.974Z,86.70
2019-03-11T18:29:25.988Z,86.80
2019-03-11T18:32:11.173Z,86.90
2019-03-11T18:34:56.488Z,87.40
2019-03-11T18:37:41.522Z,87.50
2019-03-11T18:40:27.259Z,87.80
2019-03-11T18:43:20.703Z,88.00
2019-03-11T18:45:59.893Z,88.20
2019-03-11T18:48:45.133Z,88.50
2019-03-11T18:51:30.491Z,88.80
2019-03-11T18:54:15.625Z,89.10
2019-03-11T18:57:02.907Z,89.50
2019-03-11T18:59:48.386Z,89.70
2019-03-11T19:02:33.816Z,89.70
2019-03-11T19:05:23.438Z,89.80
2019-03-11T19:08:08.530Z,90.10
2019-03-11T19:10:54.523Z,90.10
2019-03-11T19:13:43.644Z,90.30
2019-03-11T19:16:30.814Z,90.40
2019-03-11T19:19:16.488Z,90.50
2019-03-11T19:22:02.013Z,90.50
2019-03-11T19:24:47.966Z,90.60
2019-03-11T19:27:33.240Z,90.60
2019-03-11T19:30:23.162Z,90.70
2019-03-11T19:33:10.998Z,90.70
2019-03-11T19:35:56.873Z,90.80
2019-03-11T19:38:42.295Z,90.60
2019-03-11T19:41:27.443Z,90.70
2019-03-11T19:44:14.398Z,90.70
2019-03-11T19:46:59.705Z,90.90
2019-03-11T19:49:45.922Z,90.80
2019-03-11T19:52:31.616Z,90.80
2019-03-11T19:55:17.077Z,90.80
2019-03-11T19:58:02.407Z,90.90
2019-03-11T20:00:48.177Z,90.90
2019-03-11T20:03:33.372Z,90.90
2019-03-11T20:06:19.071Z,91.00
2019-03-11T20:09:05.171Z,91.00
2019-03-11T20:11:50.014Z,91.00
2019-03-11T20:14:35.134Z,91.00
2019-03-11T20:17:20.070Z,90.90
2019-03-11T20:20:08.620Z,90.90
2019-03-11T20:22:53.792Z,91.00
2019-03-11T20:25:39.395Z,90.90
2019-03-11T20:28:24.779Z,90.90
2019-03-11T20:31:09.856Z,90.70
2019-03-11T20:33:55.450Z,90.50
2019-03-11T20:36:40.933Z,90.40
2019-03-11T20:39:26.198Z,90.30
2019-03-11T20:42:12.515Z,90.20
2019-03-11T20:44:57.537Z,90.20
2019-03-11T20:47:42.742Z,90.10
2019-03-11T20:50:32.629Z,90.00
2019-03-11T20:53:14.801Z,90.10
2019-03-11T20:55:59.998Z,90.10
2019-03-11T20:58:45.270Z,90.10
2019-03-11T21:01:31.734Z,90.10
2019-03-11T21:04:17.833Z,90.20
2019-03-11T21:07:03.214Z,90.20
2019-03-11T21:09:49.090Z,90.20
2019-03-11T21:12:34.449Z,90.20
2019-03-11T21:15:19.613Z,90.20
2019-03-11T21:18:04.569Z,90.30
2019-03-11T21:20:50.124Z,90.40
2019-03-11T21:23:35.736Z,90.40
2019-03-11T21:26:21.519Z,90.50
2019-03-11T21:29:07.022Z,90.50
2019-03-11T21:31:52.052Z,90.40
2019-03-11T21:34:37.859Z,90.40
2019-03-11T21:37:23.066Z,90.60
2019-03-11T21:40:14.164Z,90.60
2019-03-11T21:42:59.869Z,90.50
2019-03-11T21:45:44.769Z,90.50
2019-03-11T21:48:29.829Z,90.20
2019-03-11T21:51:15.351Z,90.00
2019-03-11T21:54:00.216Z,90.00
2019-03-11T21:56:45.376Z,89.60
2019-03-11T21:59:30.517Z,89.20
2019-03-11T22:02:15.750Z,89.10
2019-03-11T22:05:01.183Z,89.10
2019-03-11T22:07:46.389Z,89.30
2019-03-11T22:10:32.841Z,89.20
2019-03-11T22:13:17.637Z,89.00
2019-03-11T22:16:03.086Z,89.10
2019-03-11T22:18:48.649Z,89.10
2019-03-11T22:21:33.851Z,88.90
2019-03-11T22:24:18.837Z,89.60
2019-03-11T22:27:05.498Z,89.10
2019-03-11T22:29:50.624Z,89.70
2019-03-11T22:32:35.618Z,89.40
2019-03-11T22:35:21.427Z,89.30
2019-03-11T22:38:08.402Z,89.30
2019-03-11T22:40:53.558Z,89.40
2019-03-11T22:43:39.846Z,89.30
2019-03-11T22:46:24.961Z,89.40
2019-03-11T22:49:10.138Z,89.70
2019-03-11T22:51:55.587Z,89.60
2019-03-11T22:54:40.884Z,89.80
2019-03-11T22:57:29.532Z,89.80
2019-03-11T23:00:46.025Z,90.00
2019-03-11T23:03:31.369Z,90.10
2019-03-11T23:06:16.480Z,90.20
2019-03-11T23:09:01.584Z,90.40
2019-03-11T23:11:46.963Z,90.40
2019-03-11T23:14:33.489Z,90.50
2019-03-11T23:17:18.692Z,90.70
2019-03-11T23:20:06.179Z,90.80
2019-03-11T23:22:51.340Z,91.00
2019-03-11T23:25:36.266Z,91.10
2019-03-11T23:28:21.276Z,91.10
2019-03-11T23:31:06.471Z,91.20
2019-03-11T23:33:51.706Z,91.10
2019-03-11T23:36:36.770Z,91.10
2019-03-11T23:39:23.813Z,91.10
2019-03-11T23:42:09.233Z,91.10
2019-03-11T23:44:54.609Z,91.10
2019-03-11T23:47:39.743Z,91.20
2019-03-11T23:50:25.191Z,91.30
2019-03-11T23:53:10.485Z,91.20
2019-03-11T23:55:55.889Z,91.10
2019-03-11T23:58:40.921Z,91.20
